sensor_id;sensor_type;location;lat;lon;timestamp;pressure;altitude;pressure_sealevel;temperature;humidity
11678;BME280;5895;41.950;24.372;2023-02-02T00:00:11;86604.19;;;-2.24;77.61
11678;BME280;5895;41.950;24.372;2023-02-02T00:02:39;86602.94;;;-2.28;78.42
11678;BME280;5895;41.950;24.372;2023-02-02T00:05:06;86602.94;;;-2.28;78.32
11678;BME280;5895;41.950;24.372;2023-02-02T00:07:34;86610.22;;;-2.25;77.77
11678;BME280;5895;41.950;24.372;2023-02-02T00:10:01;86612.59;;;-2.31;78.51
11678;BME280;5895;41.950;24.372;2023-02-02T00:12:29;86602.44;;;-2.31;79.25
11678;BME280;5895;41.950;24.372;2023-02-02T00:14:57;86613.56;;;-2.32;78.94
11678;BME280;5895;41.950;24.372;2023-02-02T00:17:24;86611.19;;;-2.34;79.82
11678;BME280;5895;41.950;24.372;2023-02-02T00:19:51;86615.31;;;-2.33;79.84
11678;BME280;5895;41.950;24.372;2023-02-02T00:22:18;86612.16;;;-2.35;80.67
11678;BME280;5895;41.950;24.372;2023-02-02T00:24:45;86615.00;;;-2.38;80.20
11678;BME280;5895;41.950;24.372;2023-02-02T00:27:12;86620.06;;;-2.38;80.66
11678;BME280;5895;41.950;24.372;2023-02-02T00:29:40;86622.63;;;-2.38;80.62
11678;BME280;5895;41.950;24.372;2023-02-02T00:32:07;86620.88;;;-2.37;81.20
11678;BME280;5895;41.950;24.372;2023-02-02T00:34:34;86612.44;;;-2.38;80.98
11678;BME280;5895;41.950;24.372;2023-02-02T00:37:01;86604.84;;;-2.38;81.06
11678;BME280;5895;41.950;24.372;2023-02-02T00:39:28;86604.22;;;-2.40;81.00
11678;BME280;5895;41.950;24.372;2023-02-02T00:41:55;86607.06;;;-2.43;81.28
11678;BME280;5895;41.950;24.372;2023-02-02T00:44:22;86605.47;;;-2.44;81.81
11678;BME280;5895;41.950;24.372;2023-02-02T00:47:08;86605.78;;;-2.47;81.81
11678;BME280;5895;41.950;24.372;2023-02-02T00:49:35;86612.59;;;-2.48;81.87
11678;BME280;5895;41.950;24.372;2023-02-02T00:52:02;86614.34;;;-2.48;82.10
11678;BME280;5895;41.950;24.372;2023-02-02T00:54:29;86617.06;;;-2.50;82.01
11678;BME280;5895;41.950;24.372;2023-02-02T00:56:57;86612.94;;;-2.51;81.88
11678;BME280;5895;41.950;24.372;2023-02-02T00:59:24;86609.59;;;-2.51;82.09
11678;BME280;5895;41.950;24.372;2023-02-02T01:01:51;86609.13;;;-2.55;81.62
11678;BME280;5895;41.950;24.372;2023-02-02T01:04:19;86607.69;;;-2.57;82.38
11678;BME280;5895;41.950;24.372;2023-02-02T01:06:46;86602.75;;;-2.59;82.29
11678;BME280;5895;41.950;24.372;2023-02-02T01:09:13;86601.34;;;-2.61;82.53
11678;BME280;5895;41.950;24.372;2023-02-02T01:11:40;86604.50;;;-2.59;82.75
11678;BME280;5895;41.950;24.372;2023-02-02T01:14:07;86603.56;;;-2.58;82.17
11678;BME280;5895;41.950;24.372;2023-02-02T01:16:34;86615.31;;;-2.57;82.43
11678;BME280;5895;41.950;24.372;2023-02-02T01:19:01;86602.94;;;-2.52;82.47
11678;BME280;5895;41.950;24.372;2023-02-02T01:21:30;86600.06;;;-2.49;82.09
11678;BME280;5895;41.950;24.372;2023-02-02T01:23:57;86591.19;;;-2.45;82.09
11678;BME280;5895;41.950;24.372;2023-02-02T01:26:25;86588.00;;;-2.39;81.78
11678;BME280;5895;41.950;24.372;2023-02-02T01:28:52;86594.97;;;-2.33;81.33
11678;BME280;5895;41.950;24.372;2023-02-02T01:31:19;86601.34;;;-2.29;81.76
11678;BME280;5895;41.950;24.372;2023-02-02T01:33:47;86589.56;;;-2.22;81.02
11678;BME280;5895;41.950;24.372;2023-02-02T01:36:16;86590.50;;;-2.15;80.91
11678;BME280;5895;41.950;24.372;2023-02-02T01:38:46;86602.56;;;-2.08;81.28
11678;BME280;5895;41.950;24.372;2023-02-02T01:41:17;86604.47;;;-2.02;81.35
11678;BME280;5895;41.950;24.372;2023-02-02T01:44:03;86600.66;;;-1.98;80.30
11678;BME280;5895;41.950;24.372;2023-02-02T01:46:32;86607.78;;;-1.94;80.71
11678;BME280;5895;41.950;24.372;2023-02-02T01:49:03;86601.75;;;-1.93;80.93
11678;BME280;5895;41.950;24.372;2023-02-02T01:51:37;86607.31;;;-1.89;81.06
11678;BME280;5895;41.950;24.372;2023-02-02T01:54:09;86600.97;;;-1.85;80.63
11678;BME280;5895;41.950;24.372;2023-02-02T01:56:42;86593.94;;;-1.83;80.83
11678;BME280;5895;41.950;24.372;2023-02-02T01:59:12;86602.19;;;-1.81;80.72
11678;BME280;5895;41.950;24.372;2023-02-02T02:01:40;86601.88;;;-1.78;81.00
11678;BME280;5895;41.950;24.372;2023-02-02T02:04:08;86599.97;;;-1.76;80.90
11678;BME280;5895;41.950;24.372;2023-02-02T02:06:36;86604.88;;;-1.74;81.03
11678;BME280;5895;41.950;24.372;2023-02-02T02:09:05;86603.78;;;-1.72;81.20
11678;BME280;5895;41.950;24.372;2023-02-02T02:11:34;86602.81;;;-1.71;80.67
11678;BME280;5895;41.950;24.372;2023-02-02T02:14:03;86604.41;;;-1.70;81.12
11678;BME280;5895;41.950;24.372;2023-02-02T02:16:59;86600.09;;;-1.69;80.97
11678;BME280;5895;41.950;24.372;2023-02-02T02:23:23;86599.97;;;-1.68;80.58
11678;BME280;5895;41.950;24.372;2023-02-02T02:26:34;86602.16;;;-1.65;79.90
11678;BME280;5895;41.950;24.372;2023-02-02T02:29:38;86607.25;;;-1.65;80.21
11678;BME280;5895;41.950;24.372;2023-02-02T02:32:18;86595.19;;;-1.63;80.37
11678;BME280;5895;41.950;24.372;2023-02-02T02:34:54;86600.09;;;-1.61;81.26
11678;BME280;5895;41.950;24.372;2023-02-02T02:37:37;86600.25;;;-1.63;80.84
11678;BME280;5895;41.950;24.372;2023-02-02T02:40:12;86597.22;;;-1.58;80.41
11678;BME280;5895;41.950;24.372;2023-02-02T02:42:44;86607.56;;;-1.60;80.99
11678;BME280;5895;41.950;24.372;2023-02-02T02:45:13;86606.28;;;-1.55;81.00
11678;BME280;5895;41.950;24.372;2023-02-02T02:47:42;86596.88;;;-1.55;81.31
11678;BME280;5895;41.950;24.372;2023-02-02T02:50:10;86599.25;;;-1.53;80.95
11678;BME280;5895;41.950;24.372;2023-02-02T02:52:38;86599.25;;;-1.53;81.26
11678;BME280;5895;41.950;24.372;2023-02-02T02:55:07;86608.66;;;-1.54;81.63
11678;BME280;5895;41.950;24.372;2023-02-02T02:57:48;86594.19;;;-1.53;81.81
11678;BME280;5895;41.950;24.372;2023-02-02T03:00:36;86606.28;;;-1.55;81.24
11678;BME280;5895;41.950;24.372;2023-02-02T03:03:15;86603.09;;;-1.57;81.30
11678;BME280;5895;41.950;24.372;2023-02-02T03:05:51;86599.91;;;-1.60;80.79
11678;BME280;5895;41.950;24.372;2023-02-02T03:08:24;86595.97;;;-1.62;81.38
11678;BME280;5895;41.950;24.372;2023-02-02T03:10:54;86593.91;;;-1.67;81.43
11678;BME280;5895;41.950;24.372;2023-02-02T03:13:23;86596.75;;;-1.70;81.53
11678;BME280;5895;41.950;24.372;2023-02-02T03:15:52;86596.16;;;-1.72;82.14
11678;BME280;5895;41.950;24.372;2023-02-02T03:18:22;86589.19;;;-1.78;82.24
11678;BME280;5895;41.950;24.372;2023-02-02T03:20:51;86591.72;;;-1.78;82.02
11678;BME280;5895;41.950;24.372;2023-02-02T03:23:18;86584.56;;;-1.82;81.92
11678;BME280;5895;41.950;24.372;2023-02-02T03:25:46;86584.09;;;-1.86;82.34
11678;BME280;5895;41.950;24.372;2023-02-02T03:28:14;86581.91;;;-1.89;82.92
11678;BME280;5895;41.950;24.372;2023-02-02T03:30:42;86589.84;;;-1.92;82.38
11678;BME280;5895;41.950;24.372;2023-02-02T03:33:11;86591.75;;;-1.94;82.50
11678;BME280;5895;41.950;24.372;2023-02-02T03:35:40;86589.22;;;-2.02;82.95
11678;BME280;5895;41.950;24.372;2023-02-02T03:38:07;86578.72;;;-1.99;83.24
11678;BME280;5895;41.950;24.372;2023-02-02T03:40:34;86586.66;;;-2.02;82.36
11678;BME280;5895;41.950;24.372;2023-02-02T03:43:01;86580.97;;;-2.04;82.47
11678;BME280;5895;41.950;24.372;2023-02-02T03:45:29;86569.22;;;-2.05;82.42
11678;BME280;5895;41.950;24.372;2023-02-02T03:47:56;86583.84;;;-2.07;81.84
11678;BME280;5895;41.950;24.372;2023-02-02T03:50:23;86588.09;;;-2.08;81.99
11678;BME280;5895;41.950;24.372;2023-02-02T03:52:52;86593.69;;;-2.13;81.67
11678;BME280;5895;41.950;24.372;2023-02-02T03:55:20;86581.63;;;-2.10;82.27
11678;BME280;5895;41.950;24.372;2023-02-02T03:57:47;86579.38;;;-2.14;81.95
11678;BME280;5895;41.950;24.372;2023-02-02T04:00:14;86584.19;;;-2.19;81.62
11678;BME280;5895;41.950;24.372;2023-02-02T04:02:41;86587.34;;;-2.17;82.32
11678;BME280;5895;41.950;24.372;2023-02-02T04:05:08;86587.03;;;-2.22;81.97
11678;BME280;5895;41.950;24.372;2023-02-02T04:07:36;86587.19;;;-2.23;81.01
11678;BME280;5895;41.950;24.372;2023-02-02T04:10:05;86583.38;;;-2.27;81.31
11678;BME280;5895;41.950;24.372;2023-02-02T04:12:32;86583.56;;;-2.29;81.56
11678;BME280;5895;41.950;24.372;2023-02-02T04:14:59;86580.53;;;-2.32;81.62
11678;BME280;5895;41.950;24.372;2023-02-02T04:17:26;86584.19;;;-2.35;81.75
11678;BME280;5895;41.950;24.372;2023-02-02T04:19:53;86586.25;;;-2.38;80.69
11678;BME280;5895;41.950;24.372;2023-02-02T04:22:22;86585.16;;;-2.44;81.26
11678;BME280;5895;41.950;24.372;2023-02-02T04:24:50;86596.25;;;-2.53;81.56
11678;BME280;5895;41.950;24.372;2023-02-02T04:27:18;86588.31;;;-2.58;81.45
11678;BME280;5895;41.950;24.372;2023-02-02T04:29:45;86591.50;;;-2.64;82.10
11678;BME280;5895;41.950;24.372;2023-02-02T04:32:13;86596.25;;;-2.70;81.73
11678;BME280;5895;41.950;24.372;2023-02-02T04:34:40;86592.47;;;-2.74;81.16
11678;BME280;5895;41.950;24.372;2023-02-02T04:37:08;86587.69;;;-2.77;81.19
11678;BME280;5895;41.950;24.372;2023-02-02T04:39:35;86594.84;;;-2.80;81.03
11678;BME280;5895;41.950;24.372;2023-02-02T04:42:02;86593.72;;;-2.86;80.68
11678;BME280;5895;41.950;24.372;2023-02-02T04:44:31;86603.56;;;-2.83;80.39
11678;BME280;5895;41.950;24.372;2023-02-02T04:46:58;86604.81;;;-2.87;80.43
11678;BME280;5895;41.950;24.372;2023-02-02T04:49:25;86601.63;;;-2.89;80.35
11678;BME280;5895;41.950;24.372;2023-02-02T04:51:52;86601.16;;;-2.93;80.09
11678;BME280;5895;41.950;24.372;2023-02-02T04:54:19;86602.28;;;-2.95;79.35
11678;BME280;5895;41.950;24.372;2023-02-02T04:56:46;86602.75;;;-2.91;79.66
11678;BME280;5895;41.950;24.372;2023-02-02T04:59:13;86602.59;;;-2.90;78.59
11678;BME280;5895;41.950;24.372;2023-02-02T05:01:41;86608.28;;;-2.88;78.68
11678;BME280;5895;41.950;24.372;2023-02-02T05:04:10;86604.81;;;-2.87;78.81
11678;BME280;5895;41.950;24.372;2023-02-02T05:06:37;86602.91;;;-2.85;78.73
11678;BME280;5895;41.950;24.372;2023-02-02T05:09:04;86604.50;;;-2.84;79.19
11678;BME280;5895;41.950;24.372;2023-02-02T05:11:31;86608.97;;;-2.86;78.11
11678;BME280;5895;41.950;24.372;2023-02-02T05:13:58;86617.53;;;-2.79;78.16
11678;BME280;5895;41.950;24.372;2023-02-02T05:16:25;86609.75;;;-2.77;77.88
11678;BME280;5895;41.950;24.372;2023-02-02T05:18:54;86616.41;;;-2.76;78.21
11678;BME280;5895;41.950;24.372;2023-02-02T05:21:22;86613.72;;;-2.75;77.79
11678;BME280;5895;41.950;24.372;2023-02-02T05:23:50;86621.47;;;-2.76;78.10
11678;BME280;5895;41.950;24.372;2023-02-02T05:26:19;86619.09;;;-2.78;78.51
11678;BME280;5895;41.950;24.372;2023-02-02T05:28:48;86612.78;;;-2.74;77.60
11678;BME280;5895;41.950;24.372;2023-02-02T05:31:15;86618.81;;;-2.75;77.03
11678;BME280;5895;41.950;24.372;2023-02-02T05:33:42;86625.31;;;-2.80;77.27
11678;BME280;5895;41.950;24.372;2023-02-02T05:36:11;86613.38;;;-2.88;77.58
11678;BME280;5895;41.950;24.372;2023-02-02T05:38:38;86624.00;;;-2.93;78.25
11678;BME280;5895;41.950;24.372;2023-02-02T05:41:05;86630.34;;;-2.97;78.08
11678;BME280;5895;41.950;24.372;2023-02-02T05:43:32;86625.06;;;-3.03;77.91
11678;BME280;5895;41.950;24.372;2023-02-02T05:46:00;86631.56;;;-3.09;78.42
11678;BME280;5895;41.950;24.372;2023-02-02T05:48:27;86630.47;;;-3.06;78.24
11678;BME280;5895;41.950;24.372;2023-02-02T05:50:59;86628.91;;;-3.07;78.78
11678;BME280;5895;41.950;24.372;2023-02-02T05:53:30;86632.38;;;-3.08;77.68
11678;BME280;5895;41.950;24.372;2023-02-02T05:55:58;86636.19;;;-3.04;77.56
11678;BME280;5895;41.950;24.372;2023-02-02T05:58:25;86613.00;;;-3.09;77.95
11678;BME280;5895;41.950;24.372;2023-02-02T06:00:52;86630.16;;;-3.03;77.08
11678;BME280;5895;41.950;24.372;2023-02-02T06:03:20;86633.66;;;-3.04;77.42
11678;BME280;5895;41.950;24.372;2023-02-02T06:05:47;86627.94;;;-3.06;77.78
11678;BME280;5895;41.950;24.372;2023-02-02T06:08:14;86629.03;;;-3.09;77.77
11678;BME280;5895;41.950;24.372;2023-02-02T06:10:42;86634.59;;;-3.13;77.56
11678;BME280;5895;41.950;24.372;2023-02-02T06:13:09;86635.69;;;-3.16;77.96
11678;BME280;5895;41.950;24.372;2023-02-02T06:15:37;86644.25;;;-3.17;78.80
11678;BME280;5895;41.950;24.372;2023-02-02T06:18:04;86639.97;;;-3.16;78.52
11678;BME280;5895;41.950;24.372;2023-02-02T06:20:33;86641.53;;;-3.15;79.13
11678;BME280;5895;41.950;24.372;2023-02-02T06:23:00;86650.44;;;-3.20;78.73
11678;BME280;5895;41.950;24.372;2023-02-02T06:25:27;86651.06;;;-3.17;78.87
11678;BME280;5895;41.950;24.372;2023-02-02T06:27:56;86657.56;;;-3.23;78.66
11678;BME280;5895;41.950;24.372;2023-02-02T06:30:23;86652.31;;;-3.22;78.07
11678;BME280;5895;41.950;24.372;2023-02-02T06:32:51;86659.13;;;-3.22;78.55
11678;BME280;5895;41.950;24.372;2023-02-02T06:35:18;86656.41;;;-3.29;77.44
11678;BME280;5895;41.950;24.372;2023-02-02T06:37:45;86664.81;;;-3.36;77.83
11678;BME280;5895;41.950;24.372;2023-02-02T06:40:12;86673.34;;;-3.37;78.55
11678;BME280;5895;41.950;24.372;2023-02-02T06:42:39;86669.38;;;-3.40;78.58
11678;BME280;5895;41.950;24.372;2023-02-02T06:56:59;86666.63;;;-3.12;76.90
11678;BME280;5895;41.950;24.372;2023-02-02T06:59:27;86668.38;;;-3.13;77.89
11678;BME280;5895;41.950;24.372;2023-02-02T07:01:54;86669.16;;;-3.04;78.30
11678;BME280;5895;41.950;24.372;2023-02-02T07:04:21;86669.09;;;-2.78;78.19
11678;BME280;5895;41.950;24.372;2023-02-02T07:06:48;86668.66;;;-2.41;77.93
11678;BME280;5895;41.950;24.372;2023-02-02T07:09:16;86668.97;;;-2.03;76.57
11678;BME280;5895;41.950;24.372;2023-02-02T07:11:43;86678.78;;;-1.68;75.12
11678;BME280;5895;41.950;24.372;2023-02-02T07:14:12;86663.44;;;-1.35;74.44
11678;BME280;5895;41.950;24.372;2023-02-02T07:16:39;86670.66;;;-1.08;73.13
11678;BME280;5895;41.950;24.372;2023-02-02T07:19:07;86673.25;;;-0.76;73.31
11678;BME280;5895;41.950;24.372;2023-02-02T07:21:34;86677.38;;;-0.44;71.99
11678;BME280;5895;41.950;24.372;2023-02-02T07:24:02;86679.47;;;-0.25;71.32
11678;BME280;5895;41.950;24.372;2023-02-02T07:26:30;86683.09;;;0.04;70.86
11678;BME280;5895;41.950;24.372;2023-02-02T07:28:57;86682.56;;;0.31;70.28
11678;BME280;5895;41.950;24.372;2023-02-02T07:31:26;86680.47;;;0.35;67.53
11678;BME280;5895;41.950;24.372;2023-02-02T07:33:53;86678.03;;;0.56;68.19
11678;BME280;5895;41.950;24.372;2023-02-02T07:36:22;86669.97;;;0.82;67.43
11678;BME280;5895;41.950;24.372;2023-02-02T07:38:51;86672.16;;;1.15;67.29
11678;BME280;5895;41.950;24.372;2023-02-02T07:41:20;86669.06;;;1.34;65.41
11678;BME280;5895;41.950;24.372;2023-02-02T07:43:48;86673.75;;;1.67;64.70
11678;BME280;5895;41.950;24.372;2023-02-02T07:46:16;86678.22;;;1.79;64.65
11678;BME280;5895;41.950;24.372;2023-02-02T07:48:46;86667.88;;;1.88;63.57
11678;BME280;5895;41.950;24.372;2023-02-02T07:51:15;86677.81;;;1.76;65.04
11678;BME280;5895;41.950;24.372;2023-02-02T07:53:43;86660.66;;;1.91;65.19
11678;BME280;5895;41.950;24.372;2023-02-02T07:56:11;86672.94;;;2.24;64.41
11678;BME280;5895;41.950;24.372;2023-02-02T07:58:39;86667.13;;;2.58;65.24
11678;BME280;5895;41.950;24.372;2023-02-02T08:01:08;86666.19;;;2.87;64.39
11678;BME280;5895;41.950;24.372;2023-02-02T08:03:37;86665.38;;;3.14;64.66
11678;BME280;5895;41.950;24.372;2023-02-02T08:06:14;86672.25;;;3.49;59.78
11678;BME280;5895;41.950;24.372;2023-02-02T08:08:42;86670.75;;;3.67;63.87
11678;BME280;5895;41.950;24.372;2023-02-02T08:11:11;86668.28;;;3.46;63.94
11678;BME280;5895;41.950;24.372;2023-02-02T08:13:39;86671.16;;;3.30;64.76
11678;BME280;5895;41.950;24.372;2023-02-02T08:16:07;86660.56;;;3.39;64.61
11678;BME280;5895;41.950;24.372;2023-02-02T08:18:35;86664.38;;;3.50;64.36
11678;BME280;5895;41.950;24.372;2023-02-02T08:21:04;86671.22;;;3.84;64.03
11678;BME280;5895;41.950;24.372;2023-02-02T08:23:34;86665.94;;;3.99;62.60
11678;BME280;5895;41.950;24.372;2023-02-02T08:26:07;86670.75;;;4.29;61.12
11678;BME280;5895;41.950;24.372;2023-02-02T08:28:34;86666.41;;;4.36;62.49
11678;BME280;5895;41.950;24.372;2023-02-02T08:31:07;86677.88;;;4.46;58.84
11678;BME280;5895;41.950;24.372;2023-02-02T08:33:35;86674.53;;;4.59;62.33
11678;BME280;5895;41.950;24.372;2023-02-02T08:36:03;86678.13;;;4.71;62.05
11678;BME280;5895;41.950;24.372;2023-02-02T08:38:30;86667.81;;;4.98;62.92
11678;BME280;5895;41.950;24.372;2023-02-02T08:41:05;86681.28;;;5.13;54.59
11678;BME280;5895;41.950;24.372;2023-02-02T08:43:33;86671.38;;;5.23;61.23
11678;BME280;5895;41.950;24.372;2023-02-02T08:46:00;86655.09;;;5.43;61.72
11678;BME280;5895;41.950;24.372;2023-02-02T08:48:27;86667.91;;;5.69;62.13
11678;BME280;5895;41.950;24.372;2023-02-02T08:50:56;86668.84;;;5.81;60.23
11678;BME280;5895;41.950;24.372;2023-02-02T08:53:24;86667.13;;;5.69;60.95
11678;BME280;5895;41.950;24.372;2023-02-02T08:55:57;86662.88;;;5.88;58.82
11678;BME280;5895;41.950;24.372;2023-02-02T08:58:27;86664.19;;;6.23;61.76
11678;BME280;5895;41.950;24.372;2023-02-02T09:01:02;86664.09;;;6.36;61.05
11678;BME280;5895;41.950;24.372;2023-02-02T09:03:29;86658.59;;;6.26;59.28
11678;BME280;5895;41.950;24.372;2023-02-02T09:05:57;86654.84;;;6.29;60.80
11678;BME280;5895;41.950;24.372;2023-02-02T09:08:24;86660.16;;;6.27;60.67
11678;BME280;5895;41.950;24.372;2023-02-02T09:10:51;86660.06;;;6.47;61.82
11678;BME280;5895;41.950;24.372;2023-02-02T09:13:19;86654.97;;;6.41;60.47
11678;BME280;5895;41.950;24.372;2023-02-02T09:15:47;86654.13;;;6.47;58.29
11678;BME280;5895;41.950;24.372;2023-02-02T09:18:15;86651.63;;;6.65;60.61
11678;BME280;5895;41.950;24.372;2023-02-02T09:20:42;86652.31;;;6.85;60.14
11678;BME280;5895;41.950;24.372;2023-02-02T09:23:09;86644.91;;;6.64;60.52
11678;BME280;5895;41.950;24.372;2023-02-02T09:25:37;86649.31;;;6.57;59.10
11678;BME280;5895;41.950;24.372;2023-02-02T09:28:04;86640.41;;;6.53;58.97
11678;BME280;5895;41.950;24.372;2023-02-02T09:30:31;86632.91;;;6.76;60.53
11678;BME280;5895;41.950;24.372;2023-02-02T09:33:00;86636.19;;;7.15;56.29
11678;BME280;5895;41.950;24.372;2023-02-02T09:35:28;86641.66;;;7.25;60.19
11678;BME280;5895;41.950;24.372;2023-02-02T09:37:55;86629.19;;;7.40;58.80
11678;BME280;5895;41.950;24.372;2023-02-02T09:40:22;86625.34;;;7.50;59.42
11678;BME280;5895;41.950;24.372;2023-02-02T09:43:05;86627.97;;;7.86;48.25
11678;BME280;5895;41.950;24.372;2023-02-02T09:45:39;86630.09;;;7.89;50.79
11678;BME280;5895;41.950;24.372;2023-02-02T09:48:21;86620.97;;;8.05;51.64
11678;BME280;5895;41.950;24.372;2023-02-02T09:50:54;86624.63;;;8.16;55.99
11678;BME280;5895;41.950;24.372;2023-02-02T09:53:33;86622.22;;;8.03;51.55
11678;BME280;5895;41.950;24.372;2023-02-02T09:56:06;86623.06;;;7.78;57.31
11678;BME280;5895;41.950;24.372;2023-02-02T09:58:41;86624.78;;;8.21;54.27
11678;BME280;5895;41.950;24.372;2023-02-02T10:01:13;86623.50;;;8.60;56.20
11678;BME280;5895;41.950;24.372;2023-02-02T10:03:52;86616.53;;;8.61;45.39
11678;BME280;5895;41.950;24.372;2023-02-02T10:06:31;86622.88;;;8.46;50.86
11678;BME280;5895;41.950;24.372;2023-02-02T10:09:05;86619.59;;;8.21;52.67
11678;BME280;5895;41.950;24.372;2023-02-02T10:11:40;86614.41;;;8.39;54.29
11678;BME280;5895;41.950;24.372;2023-02-02T10:14:16;86615.41;;;8.68;53.68
11678;BME280;5895;41.950;24.372;2023-02-02T10:16:47;86606.84;;;9.10;56.85
11678;BME280;5895;41.950;24.372;2023-02-02T10:19:17;86601.03;;;9.26;54.23
11678;BME280;5895;41.950;24.372;2023-02-02T10:21:49;86603.50;;;9.44;56.54
11678;BME280;5895;41.950;24.372;2023-02-02T10:24:19;86592.97;;;9.86;57.50
11678;BME280;5895;41.950;24.372;2023-02-02T10:26:49;86596.34;;;9.87;55.11
11678;BME280;5895;41.950;24.372;2023-02-02T10:29:27;86590.88;;;9.36;49.48
11678;BME280;5895;41.950;24.372;2023-02-02T10:32:05;86592.00;;;9.52;52.73
11678;BME280;5895;41.950;24.372;2023-02-02T10:34:41;86582.75;;;9.68;52.86
11678;BME280;5895;41.950;24.372;2023-02-02T10:37:19;86572.56;;;10.01;46.88
11678;BME280;5895;41.950;24.372;2023-02-02T10:40:01;86573.41;;;10.19;49.23
11678;BME280;5895;41.950;24.372;2023-02-02T10:42:40;86579.69;;;10.46;49.00
11678;BME280;5895;41.950;24.372;2023-02-02T10:45:13;86583.47;;;10.55;53.70
11678;BME280;5895;41.950;24.372;2023-02-02T10:47:42;86572.78;;;10.52;57.38
11678;BME280;5895;41.950;24.372;2023-02-02T10:50:17;86559.44;;;10.77;49.75
11678;BME280;5895;41.950;24.372;2023-02-02T10:52:47;86564.53;;;11.00;53.17
11678;BME280;5895;41.950;24.372;2023-02-02T10:55:24;86572.63;;;11.21;48.67
11678;BME280;5895;41.950;24.372;2023-02-02T10:58:04;86568.22;;;11.04;48.32
11678;BME280;5895;41.950;24.372;2023-02-02T11:00:38;86570.50;;;11.18;53.40
11678;BME280;5895;41.950;24.372;2023-02-02T11:03:08;86564.13;;;11.08;56.56
11678;BME280;5895;41.950;24.372;2023-02-02T11:05:37;86562.31;;;11.09;54.06
11678;BME280;5895;41.950;24.372;2023-02-02T11:08:27;86561.63;;;11.13;51.87
11678;BME280;5895;41.950;24.372;2023-02-02T11:10:59;86561.06;;;11.45;55.06
11678;BME280;5895;41.950;24.372;2023-02-02T11:13:39;86573.66;;;11.20;50.62
11678;BME280;5895;41.950;24.372;2023-02-02T11:16:19;86563.72;;;11.17;42.65
11678;BME280;5895;41.950;24.372;2023-02-02T11:18:46;86556.00;;;11.38;57.76
11678;BME280;5895;41.950;24.372;2023-02-02T11:21:24;86546.91;;;11.75;45.88
11678;BME280;5895;41.950;24.372;2023-02-02T11:23:54;86541.47;;;11.93;56.78
11678;BME280;5895;41.950;24.372;2023-02-02T11:26:23;86541.00;;;11.96;56.62
11678;BME280;5895;41.950;24.372;2023-02-02T11:28:52;86534.47;;;11.77;55.41
11678;BME280;5895;41.950;24.372;2023-02-02T11:31:30;86524.75;;;11.89;46.61
11678;BME280;5895;41.950;24.372;2023-02-02T11:34:14;86523.94;;;12.05;44.04
11678;BME280;5895;41.950;24.372;2023-02-02T11:36:57;86520.22;;;12.23;44.16
11678;BME280;5895;41.950;24.372;2023-02-02T11:39:24;86514.94;;;12.40;56.77
11678;BME280;5895;41.950;24.372;2023-02-02T11:41:58;86517.88;;;12.00;47.00
11678;BME280;5895;41.950;24.372;2023-02-02T11:44:28;86516.06;;;12.00;54.01
11678;BME280;5895;41.950;24.372;2023-02-02T11:46:57;86512.63;;;11.95;56.54
11678;BME280;5895;41.950;24.372;2023-02-02T11:49:27;86510.47;;;11.70;55.25
11678;BME280;5895;41.950;24.372;2023-02-02T11:51:57;86502.09;;;11.46;51.21
11678;BME280;5895;41.950;24.372;2023-02-02T11:54:27;86502.06;;;11.24;55.73
11678;BME280;5895;41.950;24.372;2023-02-02T11:56:58;86494.59;;;11.49;53.04
11678;BME280;5895;41.950;24.372;2023-02-02T11:59:28;86487.53;;;11.66;54.08
11678;BME280;5895;41.950;24.372;2023-02-02T12:02:24;86483.03;;;11.57;44.74
11678;BME280;5895;41.950;24.372;2023-02-02T12:04:53;86474.78;;;11.82;57.09
11678;BME280;5895;41.950;24.372;2023-02-02T12:07:26;86479.56;;;11.90;54.31
11678;BME280;5895;41.950;24.372;2023-02-02T12:09:57;86479.22;;;11.64;52.36
11678;BME280;5895;41.950;24.372;2023-02-02T12:12:37;86484.78;;;11.51;47.05
11678;BME280;5895;41.950;24.372;2023-02-02T12:15:18;86483.91;;;11.46;48.54
11678;BME280;5895;41.950;24.372;2023-02-02T12:17:51;86487.50;;;11.45;51.23
11678;BME280;5895;41.950;24.372;2023-02-02T12:20:28;86478.19;;;11.65;47.69
11678;BME280;5895;41.950;24.372;2023-02-02T12:23:12;86472.50;;;11.69;47.02
11678;BME280;5895;41.950;24.372;2023-02-02T12:25:57;86482.13;;;11.68;46.68
11678;BME280;5895;41.950;24.372;2023-02-02T12:28:44;86465.09;;;11.99;42.23
11678;BME280;5895;41.950;24.372;2023-02-02T12:31:21;86470.78;;;12.18;48.71
11678;BME280;5895;41.950;24.372;2023-02-02T12:34:01;86466.75;;;12.32;46.43
11678;BME280;5895;41.950;24.372;2023-02-02T12:36:42;86473.03;;;12.36;45.67
11678;BME280;5895;41.950;24.372;2023-02-02T12:39:26;86471.19;;;12.59;44.15
11678;BME280;5895;41.950;24.372;2023-02-02T12:42:33;86471.75;;;12.39;36.65
11678;BME280;5895;41.950;24.372;2023-02-02T12:45:22;86463.13;;;12.33;41.36
11678;BME280;5895;41.950;24.372;2023-02-02T12:48:03;86468.06;;;12.08;46.30
11678;BME280;5895;41.950;24.372;2023-02-02T12:50:38;86469.38;;;12.10;50.10
11678;BME280;5895;41.950;24.372;2023-02-02T12:53:19;86474.31;;;12.07;45.21
11678;BME280;5895;41.950;24.372;2023-02-02T12:55:58;86481.91;;;11.91;46.20
11678;BME280;5895;41.950;24.372;2023-02-02T12:58:32;86468.66;;;11.93;47.73
11678;BME280;5895;41.950;24.372;2023-02-02T13:04:09;86466.63;;;11.78;43.02
11678;BME280;5895;41.950;24.372;2023-02-02T13:07:00;86481.59;;;11.88;45.72
11678;BME280;5895;41.950;24.372;2023-02-02T13:09:39;86478.97;;;11.66;46.76
11678;BME280;5895;41.950;24.372;2023-02-02T13:12:16;86460.44;;;11.19;45.88
11678;BME280;5895;41.950;24.372;2023-02-02T13:14:47;86467.47;;;10.84;51.23
11678;BME280;5895;41.950;24.372;2023-02-02T13:17:21;86464.69;;;10.57;49.11
11678;BME280;5895;41.950;24.372;2023-02-02T13:19:51;86462.16;;;10.29;54.83
11678;BME280;5895;41.950;24.372;2023-02-02T13:22:24;86466.13;;;9.91;48.62
11678;BME280;5895;41.950;24.372;2023-02-02T13:24:55;86471.34;;;9.79;51.74
11678;BME280;5895;41.950;24.372;2023-02-02T13:27:28;86462.66;;;9.45;52.24
11678;BME280;5895;41.950;24.372;2023-02-02T13:29:59;86467.19;;;9.26;55.13
11678;BME280;5895;41.950;24.372;2023-02-02T13:32:30;86460.63;;;9.36;54.63
11678;BME280;5895;41.950;24.372;2023-02-02T13:35:02;86455.75;;;9.63;55.47
11678;BME280;5895;41.950;24.372;2023-02-02T13:37:34;86462.34;;;9.82;54.55
11678;BME280;5895;41.950;24.372;2023-02-02T13:40:05;86472.66;;;9.94;55.64